KLOL/LOL METAR and TAF weather

Enter ICAO airport designator
Station Type Date Time Source
KLOL METAR 2019/12/08 23:53 UTC NOAA

KLOL 082353Z AUTO 35006KT 10SM SCT043 BKN060 OVC070 09/03 A3002 RMK AO2 SLP168 T00940028 10100 20061 53007


Station Type Date Time Source
KLOL Decoded METAR 2019/12/08 23:53 UTC NOAA

LOVELOCK DERBY FIELD, NV, United States (KLOL) 40-04N 118-34W 1189M
Dec 08, 2019 - 06:53 PM EST / 2019.12.08 2353 UTC
Wind: from the N (350 degrees) at 7 MPH (6 KT):0
Visibility: 10 mile(s):0
Sky conditions: overcast
Temperature: 48.9 F (9.4 C)
Dew Point: 37.0 F (2.8 C)
Relative Humidity: 63%
Pressure (altimeter): 30.02 in. Hg (1016 hPa)
Pressure tendency: 0.02 inches (0.7 hPa) higher than three hours ago
ob: KLOL 082353Z AUTO 35006KT 10SM SCT043 BKN060 OVC070 09/03 A3002 RMK AO2 SLP168 T00940028 10100 20061 53007
cycle: 0

Station Type Date Time Source
KLOL TAF 2010/01/05 05:22 UTC NOAA

TAF KLOL 050522Z 0506/0606 00000KT 1/4SM FZFG VV001
FM052000 VRB03KT 3SM BR OVC002
AMD NOT SKED

Example: see airport list